createdAt,value
2018-08-10T00:02:08.055Z,95627.30
2018-08-10T00:04:38.561Z,95626.11
2018-08-10T00:07:08.501Z,95623.87
2018-08-10T00:09:37.990Z,95627.90
2018-08-10T00:12:07.461Z,95637.45
2018-08-10T00:14:37.189Z,95639.27
2018-08-10T00:17:06.957Z,95639.99
2018-08-10T00:19:36.779Z,95638.52
2018-08-10T00:22:07.014Z,95641.09
2018-08-10T00:24:36.503Z,95637.94
2018-08-10T00:27:06.343Z,95643.48
2018-08-10T00:29:36.394Z,95641.16
2018-08-10T00:32:06.815Z,95643.55
2018-08-10T00:34:37.563Z,95644.41
2018-08-10T00:37:07.550Z,95650.80
2018-08-10T00:39:37.382Z,95646.95
2018-08-10T00:42:07.846Z,95643.66
2018-08-10T00:44:37.762Z,95644.80
2018-08-10T00:47:07.663Z,95640.14
2018-08-10T00:49:37.590Z,95634.83
2018-08-10T00:52:07.471Z,95636.48
2018-08-10T00:54:37.586Z,95638.52
2018-08-10T00:57:08.350Z,95625.69
2018-08-10T00:59:38.024Z,95636.13
2018-08-10T01:02:08.003Z,95638.58
2018-08-10T01:04:38.677Z,95646.50
2018-08-10T01:07:08.260Z,95632.16
2018-08-10T01:09:37.909Z,95634.16
2018-08-10T01:12:07.905Z,95631.20
2018-08-10T01:14:37.564Z,95631.50
2018-08-10T01:17:07.123Z,95632.56
2018-08-10T01:19:38.221Z,95625.71
2018-08-10T01:22:08.095Z,95639.16
2018-08-10T01:24:38.134Z,95638.89
2018-08-10T01:27:11.886Z,95632.19
2018-08-10T01:29:41.553Z,95628.27
2018-08-10T01:32:11.460Z,95641.22
2018-08-10T01:34:41.620Z,95638.06
2018-08-10T01:37:11.495Z,95638.45
2018-08-10T01:39:41.469Z,95640.58
2018-08-10T01:42:11.747Z,95633.67
2018-08-10T01:44:41.284Z,95639.45
2018-08-10T01:47:11.031Z,95641.52
2018-08-10T01:49:41.201Z,95632.81
2018-08-10T01:52:11.949Z,95636.83
2018-08-10T01:54:41.451Z,95635.73
2018-08-10T01:57:11.679Z,95633.26
2018-08-10T01:59:41.560Z,95638.30
2018-08-10T02:02:11.032Z,95637.86
2018-08-10T02:04:41.197Z,95638.09
2018-08-10T02:07:10.737Z,95643.35
2018-08-10T02:09:41.161Z,95647.90
2018-08-10T02:12:11.721Z,95646.36
2018-08-10T02:14:41.659Z,95650.61
2018-08-10T02:17:11.889Z,95645.86
2018-08-10T02:19:42.029Z,95646.98
2018-08-10T02:22:11.861Z,95648.60
2018-08-10T02:24:41.857Z,95654.50
2018-08-10T02:27:11.787Z,95656.84
2018-08-10T02:29:41.444Z,95652.88
2018-08-10T02:32:11.320Z,95662.63
2018-08-10T02:34:40.722Z,95667.59
2018-08-10T02:37:10.194Z,95668.95
2018-08-10T02:39:39.838Z,95669.41
2018-08-10T02:42:09.788Z,95671.34
2018-08-10T02:44:39.382Z,95667.59
2018-08-10T02:47:09.593Z,95666.98
2018-08-10T02:49:39.335Z,95676.60
2018-08-10T02:52:09.014Z,95679.36
2018-08-10T02:54:39.583Z,95678.03
2018-08-10T02:57:09.619Z,95674.56
2018-08-10T02:59:39.465Z,95669.53
2018-08-10T03:02:09.664Z,95664.23
2018-08-10T03:04:39.456Z,95674.34
2018-08-10T03:07:08.842Z,95665.10
2018-08-10T03:09:39.006Z,95673.28
2018-08-10T03:12:09.316Z,95675.35
2018-08-10T03:14:39.343Z,95674.10
2018-08-10T03:17:09.694Z,95680.45
2018-08-10T03:19:39.453Z,95684.45
2018-08-10T03:22:09.278Z,95685.23
2018-08-10T03:24:38.913Z,95688.19
2018-08-10T03:27:08.805Z,95692.41
2018-08-10T03:29:38.425Z,95686.36
2018-08-10T03:32:08.556Z,95690.34
2018-08-10T03:34:38.464Z,95693.29
2018-08-10T03:37:08.221Z,95692.41
2018-08-10T03:39:38.335Z,95690.63
2018-08-10T03:42:08.183Z,95691.94
2018-08-10T03:44:37.997Z,95691.47
2018-08-10T03:47:08.230Z,95692.56
2018-08-10T03:49:37.863Z,95698.11
2018-08-10T03:52:07.877Z,95698.30
2018-08-10T03:54:38.183Z,95699.17
2018-08-10T03:57:07.790Z,95698.88
2018-08-10T03:59:37.296Z,95699.91
2018-08-10T04:02:07.456Z,95707.52
2018-08-10T04:04:36.934Z,95713.34
2018-08-10T04:07:06.533Z,95708.22
2018-08-10T04:09:36.462Z,95711.28
2018-08-10T04:12:06.615Z,95709.66
2018-08-10T04:14:36.379Z,95709.87
2018-08-10T04:17:10.642Z,95714.39
2018-08-10T04:19:40.060Z,95705.36
2018-08-10T04:22:09.997Z,95709.30
2018-08-10T04:24:39.607Z,95702.63
2018-08-10T04:27:09.324Z,95700.93
2018-08-10T04:29:38.772Z,95704.00
2018-08-10T04:32:08.307Z,95702.56
2018-08-10T04:34:38.165Z,95704.91
2018-08-10T04:37:08.299Z,95702.72
2018-08-10T04:39:38.463Z,95703.75
2018-08-10T04:42:08.233Z,95708.98
2018-08-10T04:44:37.565Z,95706.09
2018-08-10T04:47:07.887Z,95702.02
2018-08-10T04:49:37.463Z,95712.36
2018-08-10T04:52:07.325Z,95706.77
2018-08-10T04:54:38.127Z,95711.85
2018-08-10T04:57:07.926Z,95710.73
2018-08-10T04:59:37.650Z,95720.73
2018-08-10T05:02:08.724Z,95727.53
2018-08-10T05:04:38.925Z,95729.25
2018-08-10T05:07:08.927Z,95732.02
2018-08-10T05:09:38.782Z,95732.82
2018-08-10T05:12:09.573Z,95725.14
2018-08-10T05:14:39.593Z,95734.44
2018-08-10T05:17:10.025Z,95729.88
2018-08-10T05:19:39.775Z,95737.39
2018-08-10T05:22:09.800Z,95729.38
2018-08-10T05:24:39.527Z,95724.20
2018-08-10T05:27:09.386Z,95724.87
2018-08-10T05:29:38.979Z,95724.05
2018-08-10T05:32:09.080Z,95729.37
2018-08-10T05:34:38.743Z,95723.69
2018-08-10T05:37:08.713Z,95723.18
2018-08-10T05:39:38.511Z,95722.91
2018-08-10T05:42:08.146Z,95719.25
2018-08-10T05:44:37.795Z,95721.02
2018-08-10T05:47:07.801Z,95720.47
2018-08-10T05:49:37.281Z,95720.25
2018-08-10T05:52:06.992Z,95724.33
2018-08-10T05:54:36.922Z,95726.88
2018-08-10T05:57:06.810Z,95726.55
2018-08-10T05:59:36.533Z,95734.12
2018-08-10T06:02:06.568Z,95731.41
2018-08-10T06:04:36.536Z,95732.57
2018-08-10T06:07:05.893Z,95738.50
2018-08-10T06:09:35.998Z,95740.22
2018-08-10T06:12:05.642Z,95742.69
2018-08-10T06:14:35.497Z,95738.34
2018-08-10T06:17:05.626Z,95741.05
2018-08-10T06:19:35.033Z,95740.25
2018-08-10T06:22:04.792Z,95745.69
2018-08-10T06:24:34.347Z,95739.84
2018-08-10T06:27:03.962Z,95737.23
2018-08-10T06:29:33.862Z,95745.58
2018-08-10T06:32:04.034Z,95738.11
2018-08-10T06:34:33.712Z,95736.70
2018-08-10T06:37:03.369Z,95729.59
2018-08-10T06:39:33.159Z,95733.04
2018-08-10T06:42:02.777Z,95729.95
2018-08-10T06:44:32.355Z,95736.73
2018-08-10T06:47:01.918Z,95736.25
2018-08-10T06:49:31.362Z,95736.94
2018-08-10T06:52:00.971Z,95740.37
2018-08-10T06:54:30.907Z,95734.34
2018-08-10T06:57:00.646Z,95735.88
2018-08-10T06:59:30.320Z,95736.37
2018-08-10T07:02:00.071Z,95736.52
2018-08-10T07:04:29.538Z,95732.13
2018-08-10T07:06:59.219Z,95737.38
2018-08-10T07:09:29.143Z,95742.87
2018-08-10T07:11:59.013Z,95741.14
2018-08-10T07:14:28.458Z,95736.10
2018-08-10T07:16:58.076Z,95735.54
2018-08-10T07:19:27.670Z,95736.62
2018-08-10T07:21:57.501Z,95727.55
2018-08-10T07:24:27.052Z,95733.09
2018-08-10T07:26:56.468Z,95736.36
2018-08-10T07:29:26.242Z,95731.19
2018-08-10T07:31:55.649Z,95732.19
2018-08-10T07:34:25.548Z,95724.60
2018-08-10T07:36:55.414Z,95726.64
2018-08-10T07:39:25.503Z,95731.83
2018-08-10T07:41:55.071Z,95734.38
2018-08-10T07:44:24.990Z,95739.95
2018-08-10T07:46:54.536Z,95739.03
2018-08-10T07:49:24.121Z,95734.63
2018-08-10T07:51:53.839Z,95739.95
2018-08-10T07:54:23.949Z,95742.02
2018-08-10T07:56:53.520Z,95735.17
2018-08-10T07:59:22.973Z,95738.95
2018-08-10T08:01:52.645Z,95746.12
2018-08-10T08:04:22.343Z,95740.33
2018-08-10T08:06:51.827Z,95737.80
2018-08-10T08:09:21.823Z,95746.20
2018-08-10T08:11:51.822Z,95744.39
2018-08-10T08:14:21.431Z,95743.30
2018-08-10T08:16:51.246Z,95744.38
2018-08-10T08:19:20.788Z,95732.80
2018-08-10T08:22:23.805Z,95732.69
2018-08-10T08:24:53.168Z,95733.88
2018-08-10T08:27:22.640Z,95733.88
2018-08-10T08:29:52.423Z,95729.36
2018-08-10T08:32:22.005Z,95728.70
2018-08-10T08:34:51.929Z,95724.47
2018-08-10T08:37:21.783Z,95717.27
2018-08-10T08:40:09.244Z,95727.52
2018-08-10T08:42:39.167Z,95722.63
2018-08-10T08:46:12.422Z,95726.77
2018-08-10T08:48:44.837Z,95725.25
2018-08-10T08:51:16.848Z,95729.12
2018-08-10T08:53:46.837Z,95732.87
2018-08-10T08:56:17.739Z,95734.56
2018-08-10T08:58:48.818Z,95732.89
2018-08-10T09:01:18.797Z,95728.59
2018-08-10T09:04:58.993Z,95726.34
2018-08-10T09:07:29.241Z,95728.86
2018-08-10T09:09:59.299Z,95726.18
2018-08-10T09:12:29.353Z,95729.73
2018-08-10T09:15:06.421Z,95725.58
2018-08-10T09:17:36.956Z,95734.36
2018-08-10T09:20:07.208Z,95736.86
2018-08-10T09:22:37.077Z,95732.36
2018-08-10T09:25:09.882Z,95732.41
2018-08-10T09:27:39.357Z,95735.02
2018-08-10T09:30:10.293Z,95731.91
2018-08-10T09:32:40.543Z,95732.80
2018-08-10T09:35:10.948Z,95730.66
2018-08-10T09:37:41.335Z,95726.59
2018-08-10T09:40:14.919Z,95722.77
2018-08-10T09:42:45.167Z,95720.20
2018-08-10T09:45:15.595Z,95717.37
2018-08-10T09:47:46.603Z,95716.98
2018-08-10T09:50:16.950Z,95713.52
2018-08-10T09:52:57.705Z,95714.33
2018-08-10T09:55:34.151Z,95710.53
2018-08-10T09:58:10.125Z,95714.78
2018-08-10T10:00:45.040Z,95707.59
2018-08-10T10:03:23.170Z,95709.09
2018-08-10T10:05:53.793Z,95695.84
2018-08-10T10:08:24.433Z,95704.02
2018-08-10T10:10:54.003Z,95701.42
2018-08-10T10:13:23.596Z,95696.21
2018-08-10T10:15:53.677Z,95695.98
2018-08-10T10:18:23.094Z,95687.80
2018-08-10T10:20:52.615Z,95700.97
2018-08-10T10:23:22.354Z,95696.88
2018-08-10T10:25:52.089Z,95688.05
2018-08-10T10:28:21.681Z,95711.91
2018-08-10T10:30:51.895Z,95700.48
2018-08-10T10:33:21.430Z,95703.47
2018-08-10T10:35:51.035Z,95687.66
2018-08-10T10:38:20.793Z,95694.19
2018-08-10T10:40:50.551Z,95689.64
2018-08-10T10:43:20.267Z,95690.64
2018-08-10T10:45:50.307Z,95685.52
2018-08-10T10:48:20.181Z,95688.89
2018-08-10T10:50:49.743Z,95681.94
2018-08-10T10:53:19.531Z,95676.23
2018-08-10T10:55:49.044Z,95679.34
2018-08-10T10:58:18.622Z,95676.48
2018-08-10T11:00:48.945Z,95673.66
2018-08-10T11:03:18.548Z,95668.42
2018-08-10T11:05:48.027Z,95663.41
2018-08-10T11:08:17.990Z,95664.87
2018-08-10T11:10:47.498Z,95661.54
2018-08-10T11:13:17.200Z,95656.02
2018-08-10T11:15:47.249Z,95656.37
2018-08-10T11:18:16.770Z,95659.59
2018-08-10T11:20:46.421Z,95655.48
2018-08-10T11:23:16.792Z,95643.48
2018-08-10T11:25:46.559Z,95646.07
2018-08-10T11:28:15.981Z,95644.93
2018-08-10T11:30:45.701Z,95649.03
2018-08-10T11:33:15.764Z,95646.31
2018-08-10T11:35:45.457Z,95653.89
2018-08-10T11:38:17.041Z,95650.83
2018-08-10T11:40:47.455Z,95651.45
2018-08-10T11:43:19.454Z,95646.56
2018-08-10T11:45:49.485Z,95648.92
2018-08-10T11:48:19.492Z,95645.62
2018-08-10T11:50:50.003Z,95645.45
2018-08-10T11:53:19.477Z,95640.39
2018-08-10T11:55:48.962Z,95641.45
2018-08-10T11:58:19.080Z,95638.83
2018-08-10T12:00:48.866Z,95629.50
2018-08-10T12:03:18.699Z,95629.62
2018-08-10T12:05:48.729Z,95622.81
2018-08-10T12:08:19.116Z,95625.45
2018-08-10T12:10:49.222Z,95623.66
2018-08-10T12:13:19.383Z,95620.24
2018-08-10T12:15:48.934Z,95616.68
2018-08-10T12:18:18.884Z,95612.52
2018-08-10T12:20:49.280Z,95613.16
2018-08-10T12:23:19.058Z,95611.36
2018-08-10T12:25:49.211Z,95605.02
2018-08-10T12:28:19.234Z,95605.48
2018-08-10T12:30:48.781Z,95598.16
2018-08-10T12:33:18.758Z,95607.41
2018-08-10T12:35:48.744Z,95599.20
2018-08-10T12:38:18.564Z,95598.09
2018-08-10T12:40:48.282Z,95595.37
2018-08-10T12:43:18.321Z,95595.57
2018-08-10T12:45:48.368Z,95601.88
2018-08-10T12:48:18.300Z,95597.00
2018-08-10T12:50:47.984Z,95591.31
2018-08-10T12:53:18.033Z,95594.59
2018-08-10T12:55:48.051Z,95599.59
2018-08-10T12:58:17.747Z,95589.28
2018-08-10T13:00:47.173Z,95588.28
2018-08-10T13:03:17.158Z,95595.59
2018-08-10T13:05:47.388Z,95591.19
2018-08-10T13:08:16.978Z,95591.41
2018-08-10T13:10:46.929Z,95590.30
2018-08-10T13:13:17.037Z,95589.55
2018-08-10T13:15:46.415Z,95585.24
2018-08-10T13:18:16.374Z,95586.95
2018-08-10T13:20:46.332Z,95591.92
2018-08-10T13:23:16.142Z,95588.28
2018-08-10T13:25:45.797Z,95589.72
2018-08-10T13:28:15.658Z,95588.25
2018-08-10T13:30:45.141Z,95588.94
2018-08-10T13:33:14.744Z,95591.88
2018-08-10T13:35:44.977Z,95592.53
2018-08-10T13:38:14.716Z,95593.96
2018-08-10T13:40:44.823Z,95592.50
2018-08-10T13:43:14.552Z,95595.20
2018-08-10T13:45:43.997Z,95598.73
2018-08-10T13:48:13.502Z,95589.27
2018-08-10T13:50:43.675Z,95584.18
2018-08-10T13:53:13.302Z,95578.45
2018-08-10T13:55:43.070Z,95587.30
2018-08-10T13:58:13.548Z,95590.72
2018-08-10T14:00:43.209Z,95590.17
2018-08-10T14:03:13.000Z,95586.78
2018-08-10T14:05:42.492Z,95592.07
2018-08-10T14:08:11.929Z,95591.48
2018-08-10T14:10:41.754Z,95583.48
2018-08-10T14:13:11.227Z,95592.94
2018-08-10T14:15:41.021Z,95599.03
2018-08-10T14:18:11.027Z,95599.59
2018-08-10T14:20:40.701Z,95599.17
2018-08-10T14:23:10.373Z,95590.23
2018-08-10T14:25:40.202Z,95579.69
2018-08-10T14:28:10.222Z,95580.84
2018-08-10T14:30:39.834Z,95585.42
2018-08-10T14:33:09.384Z,95584.84
2018-08-10T14:35:38.973Z,95574.09
2018-08-10T14:38:08.875Z,95586.83
2018-08-10T14:40:38.478Z,95589.95
2018-08-10T14:43:08.012Z,95588.39
2018-08-10T14:45:37.457Z,95591.80
2018-08-10T14:48:07.000Z,95593.00
2018-08-10T14:50:36.643Z,95600.92
2018-08-10T14:53:06.324Z,95599.09
2018-08-10T14:55:36.030Z,95601.19
2018-08-10T14:58:06.383Z,95609.34
2018-08-10T15:00:36.049Z,95610.63
2018-08-10T15:03:05.818Z,95616.80
2018-08-10T15:05:35.417Z,95612.80
2018-08-10T15:08:04.798Z,95612.53
2018-08-10T15:10:34.389Z,95607.11
2018-08-10T15:13:04.693Z,95606.50
2018-08-10T15:15:33.898Z,95614.81
2018-08-10T15:18:03.521Z,95606.17
2018-08-10T15:20:33.456Z,95606.52
2018-08-10T15:23:03.060Z,95599.37
2018-08-10T15:25:32.694Z,95608.76
2018-08-10T15:28:02.993Z,95607.48
2018-08-10T15:30:32.641Z,95607.81
2018-08-10T15:33:02.326Z,95608.02
2018-08-10T15:35:32.552Z,95614.70
2018-08-10T15:38:02.349Z,95608.78
2018-08-10T15:40:31.933Z,95606.28
2018-08-10T15:43:01.579Z,95611.45
2018-08-10T15:45:31.063Z,95615.30
2018-08-10T15:48:00.743Z,95613.80
2018-08-10T15:50:30.859Z,95612.48
2018-08-10T15:53:00.293Z,95610.06
2018-08-10T15:55:29.716Z,95606.94
2018-08-10T15:58:00.049Z,95607.17
2018-08-10T16:00:29.711Z,95612.66
2018-08-10T16:02:59.328Z,95614.59
2018-08-10T16:05:29.628Z,95615.25
2018-08-10T16:07:59.141Z,95622.41
2018-08-10T16:10:28.943Z,95629.92
2018-08-10T16:12:58.831Z,95628.13
2018-08-10T16:15:28.519Z,95626.10
2018-08-10T16:17:58.417Z,95623.97
2018-08-10T16:20:28.565Z,95629.80
2018-08-10T16:22:58.271Z,95627.67
2018-08-10T16:25:27.979Z,95624.20
2018-08-10T16:27:58.338Z,95625.66
2018-08-10T16:30:27.929Z,95629.82
2018-08-10T16:32:57.988Z,95632.27
2018-08-10T16:35:27.649Z,95631.61
2018-08-10T16:37:57.230Z,95627.20
2018-08-10T16:40:26.746Z,95630.04
2018-08-10T16:42:56.681Z,95631.12
2018-08-10T16:45:26.253Z,95636.78
2018-08-10T16:47:55.921Z,95636.41
2018-08-10T16:50:25.833Z,95634.71
2018-08-10T16:52:55.513Z,95640.72
2018-08-10T16:55:25.102Z,95644.20
2018-08-10T16:57:54.743Z,95638.10
2018-08-10T17:00:24.186Z,95640.20
2018-08-10T17:02:53.659Z,95645.08
2018-08-10T17:05:23.845Z,95639.53
2018-08-10T17:07:53.441Z,95649.56
2018-08-10T17:10:23.011Z,95643.78
2018-08-10T17:12:53.114Z,95649.36
2018-08-10T17:15:22.871Z,95655.80
2018-08-10T17:17:52.362Z,95656.48
2018-08-10T17:20:21.912Z,95652.19
2018-08-10T17:22:51.626Z,95652.78
2018-08-10T17:25:22.037Z,95664.53
2018-08-10T17:27:52.037Z,95662.02
2018-08-10T17:30:22.048Z,95658.85
2018-08-10T17:32:51.715Z,95654.37
2018-08-10T17:35:21.817Z,95656.39
2018-08-10T17:37:51.663Z,95657.87
2018-08-10T17:40:22.094Z,95670.17
2018-08-10T17:42:52.095Z,95667.38
2018-08-10T17:45:22.068Z,95666.55
2018-08-10T17:47:52.100Z,95667.47
2018-08-10T17:50:22.419Z,95675.59
2018-08-10T17:52:53.746Z,95676.39
2018-08-10T17:55:23.954Z,95682.62
2018-08-10T17:57:53.830Z,95686.71
2018-08-10T18:00:26.582Z,95686.60
2018-08-10T18:02:56.165Z,95689.13
2018-08-10T18:05:28.307Z,95700.45
2018-08-10T18:07:58.121Z,95698.35
2018-08-10T18:10:27.550Z,95699.84
2018-08-10T18:12:57.698Z,95701.75
2018-08-10T18:15:27.430Z,95703.56
2018-08-10T18:17:56.938Z,95710.97
2018-08-10T18:20:27.103Z,95704.91
2018-08-10T18:22:56.720Z,95701.23
2018-08-10T18:25:26.181Z,95703.76
2018-08-10T18:27:56.452Z,95699.91
2018-08-10T18:30:26.629Z,95702.17
2018-08-10T18:32:56.141Z,95703.48
2018-08-10T18:35:26.221Z,95704.61
2018-08-10T18:37:55.926Z,95711.20
2018-08-10T18:40:25.574Z,95710.09
2018-08-10T18:42:55.666Z,95716.55
2018-08-10T18:45:25.283Z,95722.44
2018-08-10T18:47:54.732Z,95720.94
2018-08-10T18:50:25.069Z,95721.58
2018-08-10T18:52:54.628Z,95726.61
2018-08-10T18:55:24.450Z,95723.14
2018-08-10T18:57:54.685Z,95719.08
2018-08-10T19:00:25.852Z,95726.14
2018-08-10T19:02:56.133Z,95725.83
2018-08-10T19:05:25.863Z,95729.89
2018-08-10T19:07:55.666Z,95724.70
2018-08-10T19:10:27.094Z,95726.81
2018-08-10T19:12:56.697Z,95725.16
2018-08-10T19:15:26.226Z,95720.66
2018-08-10T19:17:56.360Z,95724.11
2018-08-10T19:20:26.246Z,95729.86
2018-08-10T19:22:55.770Z,95729.03
2018-08-10T19:25:26.128Z,95729.77
2018-08-10T19:27:55.947Z,95727.79
2018-08-10T19:30:25.779Z,95725.44
2018-08-10T19:32:55.427Z,95725.60
2018-08-10T19:35:25.203Z,95723.08
2018-08-10T19:37:54.817Z,95725.52
2018-08-10T19:40:24.169Z,95719.81
2018-08-10T19:42:53.517Z,95723.81
2018-08-10T19:45:23.266Z,95728.48
2018-08-10T19:47:53.222Z,95719.52
2018-08-10T19:50:23.549Z,95718.72
2018-08-10T19:52:54.506Z,95716.62
2018-08-10T19:55:24.583Z,95716.95
2018-08-10T19:57:54.152Z,95716.96
2018-08-10T20:00:24.299Z,95718.30
2018-08-10T20:02:53.861Z,95716.83
2018-08-10T20:05:23.398Z,95719.19
2018-08-10T20:07:53.138Z,95712.97
2018-08-10T20:10:22.741Z,95713.81
2018-08-10T20:12:52.293Z,95712.61
2018-08-10T20:15:22.382Z,95716.97
2018-08-10T20:17:52.057Z,95715.59
2018-08-10T20:20:21.823Z,95709.59
2018-08-10T20:22:51.805Z,95708.13
2018-08-10T20:25:22.129Z,95703.41
2018-08-10T20:27:51.840Z,95700.74
2018-08-10T20:30:21.650Z,95695.99
2018-08-10T20:32:51.587Z,95702.13
2018-08-10T20:35:21.291Z,95698.56
2018-08-10T20:37:51.425Z,95698.30
2018-08-10T20:40:21.418Z,95698.06
2018-08-10T20:42:51.597Z,95699.44
2018-08-10T20:45:23.883Z,95699.39
2018-08-10T20:47:53.882Z,95700.95
2018-08-10T20:50:25.136Z,95700.73
2018-08-10T21:10:17.062Z,95691.20
2018-08-10T21:12:47.631Z,95692.79
2018-08-10T21:15:17.608Z,95695.92
2018-08-10T21:35:10.175Z,95694.64
2018-08-10T21:37:40.145Z,95686.92
2018-08-10T21:40:10.637Z,95691.59
2018-08-10T21:42:41.061Z,95690.64
2018-08-10T21:45:10.833Z,95692.44
2018-08-10T21:47:40.583Z,95698.71
2018-08-10T21:50:13.973Z,95702.47
2018-08-10T21:52:45.530Z,95699.04
2018-08-10T22:29:59.869Z,95722.89
2018-08-10T22:32:29.848Z,95724.72
2018-08-10T22:34:59.450Z,95734.67
2018-08-10T22:37:28.894Z,95728.62
2018-08-10T22:39:58.976Z,95736.06
2018-08-10T22:42:28.765Z,95737.60
2018-08-10T22:44:58.455Z,95738.42
2018-08-10T22:47:28.794Z,95735.27
2018-08-10T22:49:58.328Z,95737.81
2018-08-10T22:52:28.154Z,95736.30
2018-08-10T22:54:58.363Z,95733.77
2018-08-10T22:57:27.889Z,95725.08
2018-08-10T22:59:57.440Z,95719.83
2018-08-10T23:02:27.216Z,95728.83
2018-08-10T23:04:57.804Z,95726.08
2018-08-10T23:07:27.360Z,95730.41
2018-08-10T23:09:57.558Z,95727.81
2018-08-10T23:12:27.027Z,95732.46
2018-08-10T23:14:56.642Z,95721.33
2018-08-10T23:17:26.485Z,95718.86
2018-08-10T23:19:56.076Z,95722.84
2018-08-10T23:22:26.511Z,95725.61
2018-08-10T23:24:56.216Z,95725.31
2018-08-10T23:27:25.938Z,95728.89
2018-08-10T23:29:55.575Z,95733.20
2018-08-10T23:49:46.538Z,95742.58
2018-08-10T23:52:16.205Z,95739.81
2018-08-10T23:54:46.072Z,95741.96
2018-08-10T23:57:15.777Z,95739.45
2018-08-10T23:59:45.602Z,95742.11
